sensor_id;sensor_type;location;lat;lon;timestamp;temperature;humidity
62339;DHT22;48368;53.406;6.214;2022-12-07T00:01:28;5.80;99.90
62339;DHT22;48368;53.406;6.214;2022-12-07T00:03:55;5.70;99.90
62339;DHT22;48368;53.406;6.214;2022-12-07T00:06:29;5.70;99.90
62339;DHT22;48368;53.406;6.214;2022-12-07T00:08:55;5.60;99.90
62339;DHT22;48368;53.406;6.214;2022-12-07T00:11:22;5.60;99.90
62339;DHT22;48368;53.406;6.214;2022-12-07T00:13:52;5.60;99.90
62339;DHT22;48368;53.406;6.214;2022-12-07T00:16:19;5.60;99.90
62339;DHT22;48368;53.406;6.214;2022-12-07T00:18:45;5.60;99.90
62339;DHT22;48368;53.406;6.214;2022-12-07T00:21:17;5.60;99.90
62339;DHT22;48368;53.406;6.214;2022-12-07T00:23:44;5.60;99.90
62339;DHT22;48368;53.406;6.214;2022-12-07T00:26:16;5.60;99.90
62339;DHT22;48368;53.406;6.214;2022-12-07T00:29:04;5.70;99.90
62339;DHT22;48368;53.406;6.214;2022-12-07T00:31:34;5.80;99.90
62339;DHT22;48368;53.406;6.214;2022-12-07T00:34:01;5.70;99.90
62339;DHT22;48368;53.406;6.214;2022-12-07T00:36:26;5.60;99.90
62339;DHT22;48368;53.406;6.214;2022-12-07T00:38:53;5.50;99.90
62339;DHT22;48368;53.406;6.214;2022-12-07T00:41:21;5.50;99.90
62339;DHT22;48368;53.406;6.214;2022-12-07T00:43:48;5.50;99.90
62339;DHT22;48368;53.406;6.214;2022-12-07T00:46:15;5.50;99.90
62339;DHT22;48368;53.406;6.214;2022-12-07T00:48:41;5.40;99.90
62339;DHT22;48368;53.406;6.214;2022-12-07T00:51:07;5.40;99.90
62339;DHT22;48368;53.406;6.214;2022-12-07T00:53:36;5.40;99.90
62339;DHT22;48368;53.406;6.214;2022-12-07T00:56:26;5.50;99.90
62339;DHT22;48368;53.406;6.214;2022-12-07T00:58:53;5.50;99.90
62339;DHT22;48368;53.406;6.214;2022-12-07T01:01:21;5.60;99.90
62339;DHT22;48368;53.406;6.214;2022-12-07T01:03:47;5.70;99.90
62339;DHT22;48368;53.406;6.214;2022-12-07T01:06:18;5.70;99.90
62339;DHT22;48368;53.406;6.214;2022-12-07T01:08:44;5.70;99.90
62339;DHT22;48368;53.406;6.214;2022-12-07T01:11:13;5.70;99.90
62339;DHT22;48368;53.406;6.214;2022-12-07T01:13:40;5.70;99.90
62339;DHT22;48368;53.406;6.214;2022-12-07T01:16:07;5.70;99.90
62339;DHT22;48368;53.406;6.214;2022-12-07T01:18:34;5.70;99.90
62339;DHT22;48368;53.406;6.214;2022-12-07T01:21:12;5.70;99.90
62339;DHT22;48368;53.406;6.214;2022-12-07T01:23:38;5.70;99.90
62339;DHT22;48368;53.406;6.214;2022-12-07T01:26:07;5.60;99.90
62339;DHT22;48368;53.406;6.214;2022-12-07T01:28:34;5.60;99.90
62339;DHT22;48368;53.406;6.214;2022-12-07T01:31:03;5.50;99.90
62339;DHT22;48368;53.406;6.214;2022-12-07T01:33:31;5.60;99.90
62339;DHT22;48368;53.406;6.214;2022-12-07T01:36:06;5.60;99.90
62339;DHT22;48368;53.406;6.214;2022-12-07T01:38:32;5.60;99.90
62339;DHT22;48368;53.406;6.214;2022-12-07T01:40:59;5.50;99.90
62339;DHT22;48368;53.406;6.214;2022-12-07T01:43:28;5.50;99.90
62339;DHT22;48368;53.406;6.214;2022-12-07T01:45:54;5.50;99.90
62339;DHT22;48368;53.406;6.214;2022-12-07T01:48:32;5.50;99.90
62339;DHT22;48368;53.406;6.214;2022-12-07T01:51:04;5.50;99.90
62339;DHT22;48368;53.406;6.214;2022-12-07T01:53:32;5.50;99.90
62339;DHT22;48368;53.406;6.214;2022-12-07T01:56:00;5.50;99.90
62339;DHT22;48368;53.406;6.214;2022-12-07T01:58:26;5.60;99.90
62339;DHT22;48368;53.406;6.214;2022-12-07T02:00:51;5.60;99.90
62339;DHT22;48368;53.406;6.214;2022-12-07T02:03:37;5.70;99.90
62339;DHT22;48368;53.406;6.214;2022-12-07T02:06:05;5.70;99.90
62339;DHT22;48368;53.406;6.214;2022-12-07T02:08:32;5.70;99.90
62339;DHT22;48368;53.406;6.214;2022-12-07T02:10:57;5.50;99.90
62339;DHT22;48368;53.406;6.214;2022-12-07T02:13:26;5.50;99.90
62339;DHT22;48368;53.406;6.214;2022-12-07T02:16:10;5.40;99.90
62339;DHT22;48368;53.406;6.214;2022-12-07T02:18:48;5.40;99.90
62339;DHT22;48368;53.406;6.214;2022-12-07T02:21:36;5.20;99.90
62339;DHT22;48368;53.406;6.214;2022-12-07T02:32:13;5.50;99.90
62339;DHT22;48368;53.406;6.214;2022-12-07T02:34:43;5.50;99.90
62339;DHT22;48368;53.406;6.214;2022-12-07T02:37:28;5.40;99.90
62339;DHT22;48368;53.406;6.214;2022-12-07T02:42:36;5.40;99.90
62339;DHT22;48368;53.406;6.214;2022-12-07T02:45:05;5.30;99.90
62339;DHT22;48368;53.406;6.214;2022-12-07T02:47:33;5.40;99.90
62339;DHT22;48368;53.406;6.214;2022-12-07T02:50:00;5.40;99.90
62339;DHT22;48368;53.406;6.214;2022-12-07T02:52:27;5.50;99.90
62339;DHT22;48368;53.406;6.214;2022-12-07T02:54:53;5.50;99.90
62339;DHT22;48368;53.406;6.214;2022-12-07T02:57:45;5.50;99.90
62339;DHT22;48368;53.406;6.214;2022-12-07T03:00:15;5.40;99.90
62339;DHT22;48368;53.406;6.214;2022-12-07T03:02:57;5.40;99.90
62339;DHT22;48368;53.406;6.214;2022-12-07T03:08:36;5.30;99.90
62339;DHT22;48368;53.406;6.214;2022-12-07T03:16:09;5.30;99.90
62339;DHT22;48368;53.406;6.214;2022-12-07T03:18:51;5.30;99.90
62339;DHT22;48368;53.406;6.214;2022-12-07T03:21:26;5.30;99.90
62339;DHT22;48368;53.406;6.214;2022-12-07T03:23:56;5.30;99.90
62339;DHT22;48368;53.406;6.214;2022-12-07T03:26:34;5.30;99.90
62339;DHT22;48368;53.406;6.214;2022-12-07T03:29:07;5.30;99.90
62339;DHT22;48368;53.406;6.214;2022-12-07T03:31:40;5.30;99.90
62339;DHT22;48368;53.406;6.214;2022-12-07T03:34:15;5.30;99.90
62339;DHT22;48368;53.406;6.214;2022-12-07T03:37:01;5.30;99.90
62339;DHT22;48368;53.406;6.214;2022-12-07T03:39:50;5.30;99.90
62339;DHT22;48368;53.406;6.214;2022-12-07T03:42:17;5.30;99.90
62339;DHT22;48368;53.406;6.214;2022-12-07T03:44:43;5.20;99.90
62339;DHT22;48368;53.406;6.214;2022-12-07T03:47:58;5.10;99.90
62339;DHT22;48368;53.406;6.214;2022-12-07T03:50:28;5.20;99.90
62339;DHT22;48368;53.406;6.214;2022-12-07T03:52:55;5.20;99.90
62339;DHT22;48368;53.406;6.214;2022-12-07T03:55:28;5.30;99.90
62339;DHT22;48368;53.406;6.214;2022-12-07T03:58:01;5.20;99.90
62339;DHT22;48368;53.406;6.214;2022-12-07T04:00:28;5.20;99.90
62339;DHT22;48368;53.406;6.214;2022-12-07T04:02:55;5.20;99.90
62339;DHT22;48368;53.406;6.214;2022-12-07T04:05:21;5.20;99.90
62339;DHT22;48368;53.406;6.214;2022-12-07T04:07:47;5.20;99.90
62339;DHT22;48368;53.406;6.214;2022-12-07T04:10:13;5.30;99.90
62339;DHT22;48368;53.406;6.214;2022-12-07T04:12:39;5.40;99.90
62339;DHT22;48368;53.406;6.214;2022-12-07T04:15:05;5.40;99.90
62339;DHT22;48368;53.406;6.214;2022-12-07T04:17:31;5.40;99.90
62339;DHT22;48368;53.406;6.214;2022-12-07T04:19:56;5.40;99.90
62339;DHT22;48368;53.406;6.214;2022-12-07T04:22:22;5.40;99.90
62339;DHT22;48368;53.406;6.214;2022-12-07T04:24:48;5.30;99.90
62339;DHT22;48368;53.406;6.214;2022-12-07T04:27:13;5.30;99.90
62339;DHT22;48368;53.406;6.214;2022-12-07T04:29:39;5.30;99.90
62339;DHT22;48368;53.406;6.214;2022-12-07T04:32:05;5.40;99.90
62339;DHT22;48368;53.406;6.214;2022-12-07T04:34:30;5.50;99.90
62339;DHT22;48368;53.406;6.214;2022-12-07T04:36:56;5.40;99.90
62339;DHT22;48368;53.406;6.214;2022-12-07T04:39:24;5.40;99.90
62339;DHT22;48368;53.406;6.214;2022-12-07T04:41:51;5.40;99.90
62339;DHT22;48368;53.406;6.214;2022-12-07T04:44:17;5.40;99.90
62339;DHT22;48368;53.406;6.214;2022-12-07T04:46:43;5.40;99.90
62339;DHT22;48368;53.406;6.214;2022-12-07T04:49:10;5.40;99.90
62339;DHT22;48368;53.406;6.214;2022-12-07T04:51:36;5.40;99.90
62339;DHT22;48368;53.406;6.214;2022-12-07T04:54:02;5.30;99.90
62339;DHT22;48368;53.406;6.214;2022-12-07T04:56:28;5.30;99.90
62339;DHT22;48368;53.406;6.214;2022-12-07T04:58:54;5.30;99.90
62339;DHT22;48368;53.406;6.214;2022-12-07T05:01:20;5.30;99.90
62339;DHT22;48368;53.406;6.214;2022-12-07T05:03:46;5.30;99.90
62339;DHT22;48368;53.406;6.214;2022-12-07T05:06:12;5.30;99.90
62339;DHT22;48368;53.406;6.214;2022-12-07T05:08:38;5.30;99.90
62339;DHT22;48368;53.406;6.214;2022-12-07T05:11:06;5.30;99.90
62339;DHT22;48368;53.406;6.214;2022-12-07T05:13:32;5.30;99.90
62339;DHT22;48368;53.406;6.214;2022-12-07T05:15:58;5.30;99.90
62339;DHT22;48368;53.406;6.214;2022-12-07T05:18:24;5.30;99.90
62339;DHT22;48368;53.406;6.214;2022-12-07T05:20:50;5.20;99.90
62339;DHT22;48368;53.406;6.214;2022-12-07T05:23:17;5.20;99.90
62339;DHT22;48368;53.406;6.214;2022-12-07T05:25:43;5.20;99.90
62339;DHT22;48368;53.406;6.214;2022-12-07T05:28:09;5.20;99.90
62339;DHT22;48368;53.406;6.214;2022-12-07T05:30:35;5.10;99.90
62339;DHT22;48368;53.406;6.214;2022-12-07T05:33:00;5.10;99.90
62339;DHT22;48368;53.406;6.214;2022-12-07T05:35:26;5.00;99.90
62339;DHT22;48368;53.406;6.214;2022-12-07T05:37:52;5.00;99.90
62339;DHT22;48368;53.406;6.214;2022-12-07T05:40:17;5.10;99.90
62339;DHT22;48368;53.406;6.214;2022-12-07T05:42:44;5.20;99.90
62339;DHT22;48368;53.406;6.214;2022-12-07T05:45:10;5.20;99.90
62339;DHT22;48368;53.406;6.214;2022-12-07T05:47:36;5.20;99.90
62339;DHT22;48368;53.406;6.214;2022-12-07T05:50:03;5.10;99.90
62339;DHT22;48368;53.406;6.214;2022-12-07T05:52:29;5.10;99.90
62339;DHT22;48368;53.406;6.214;2022-12-07T05:54:55;5.00;99.90
62339;DHT22;48368;53.406;6.214;2022-12-07T05:57:20;5.00;99.90
62339;DHT22;48368;53.406;6.214;2022-12-07T05:59:46;4.90;99.90
62339;DHT22;48368;53.406;6.214;2022-12-07T06:02:13;4.90;99.90
62339;DHT22;48368;53.406;6.214;2022-12-07T06:04:41;4.90;99.90
62339;DHT22;48368;53.406;6.214;2022-12-07T06:07:08;4.90;99.90
62339;DHT22;48368;53.406;6.214;2022-12-07T06:09:35;4.80;99.90
62339;DHT22;48368;53.406;6.214;2022-12-07T06:12:01;4.80;99.90
62339;DHT22;48368;53.406;6.214;2022-12-07T06:14:45;4.70;99.90
62339;DHT22;48368;53.406;6.214;2022-12-07T06:17:12;4.80;99.90
62339;DHT22;48368;53.406;6.214;2022-12-07T06:19:39;4.70;99.90
62339;DHT22;48368;53.406;6.214;2022-12-07T06:22:05;4.70;99.90
62339;DHT22;48368;53.406;6.214;2022-12-07T06:24:32;4.70;99.90
62339;DHT22;48368;53.406;6.214;2022-12-07T06:26:58;4.70;99.90
62339;DHT22;48368;53.406;6.214;2022-12-07T06:29:24;4.60;99.90
62339;DHT22;48368;53.406;6.214;2022-12-07T06:31:50;4.70;99.90
62339;DHT22;48368;53.406;6.214;2022-12-07T06:34:18;4.90;99.90
62339;DHT22;48368;53.406;6.214;2022-12-07T06:36:45;5.00;99.90
62339;DHT22;48368;53.406;6.214;2022-12-07T06:39:11;5.00;99.90
62339;DHT22;48368;53.406;6.214;2022-12-07T06:41:38;5.10;99.90
62339;DHT22;48368;53.406;6.214;2022-12-07T06:44:05;5.10;99.90
62339;DHT22;48368;53.406;6.214;2022-12-07T06:46:31;5.10;99.90
62339;DHT22;48368;53.406;6.214;2022-12-07T06:48:57;5.10;99.90
62339;DHT22;48368;53.406;6.214;2022-12-07T06:51:22;5.00;99.90
62339;DHT22;48368;53.406;6.214;2022-12-07T06:53:48;5.00;99.90
62339;DHT22;48368;53.406;6.214;2022-12-07T06:56:14;4.90;99.90
62339;DHT22;48368;53.406;6.214;2022-12-07T06:58:40;4.90;99.90
62339;DHT22;48368;53.406;6.214;2022-12-07T07:01:10;4.80;99.90
62339;DHT22;48368;53.406;6.214;2022-12-07T07:03:36;4.80;99.90
62339;DHT22;48368;53.406;6.214;2022-12-07T07:06:02;4.90;99.90
62339;DHT22;48368;53.406;6.214;2022-12-07T07:08:27;4.90;99.90
62339;DHT22;48368;53.406;6.214;2022-12-07T07:10:53;4.90;99.90
62339;DHT22;48368;53.406;6.214;2022-12-07T07:13:18;4.90;99.90
62339;DHT22;48368;53.406;6.214;2022-12-07T07:15:44;4.90;99.90
62339;DHT22;48368;53.406;6.214;2022-12-07T07:18:10;4.90;99.90
62339;DHT22;48368;53.406;6.214;2022-12-07T07:20:37;4.90;99.90
62339;DHT22;48368;53.406;6.214;2022-12-07T07:23:03;4.90;99.90
62339;DHT22;48368;53.406;6.214;2022-12-07T07:25:31;5.00;99.90
62339;DHT22;48368;53.406;6.214;2022-12-07T07:27:56;5.00;99.90
62339;DHT22;48368;53.406;6.214;2022-12-07T07:30:22;5.10;99.90
62339;DHT22;48368;53.406;6.214;2022-12-07T07:32:48;5.10;99.90
62339;DHT22;48368;53.406;6.214;2022-12-07T07:35:14;5.20;99.90
62339;DHT22;48368;53.406;6.214;2022-12-07T07:37:40;5.20;99.90
62339;DHT22;48368;53.406;6.214;2022-12-07T07:40:07;5.20;99.90
62339;DHT22;48368;53.406;6.214;2022-12-07T07:42:32;5.20;99.90
62339;DHT22;48368;53.406;6.214;2022-12-07T07:44:58;5.20;99.90
62339;DHT22;48368;53.406;6.214;2022-12-07T07:47:24;5.20;99.90
62339;DHT22;48368;53.406;6.214;2022-12-07T07:49:49;5.10;99.90
62339;DHT22;48368;53.406;6.214;2022-12-07T07:52:15;5.10;99.90
62339;DHT22;48368;53.406;6.214;2022-12-07T07:54:41;5.10;99.90
62339;DHT22;48368;53.406;6.214;2022-12-07T07:57:06;5.10;99.90
62339;DHT22;48368;53.406;6.214;2022-12-07T07:59:32;5.10;99.90
62339;DHT22;48368;53.406;6.214;2022-12-07T08:01:57;5.20;99.90
62339;DHT22;48368;53.406;6.214;2022-12-07T08:04:23;5.20;99.90
62339;DHT22;48368;53.406;6.214;2022-12-07T08:06:49;5.20;99.90
62339;DHT22;48368;53.406;6.214;2022-12-07T08:09:14;5.20;99.90
62339;DHT22;48368;53.406;6.214;2022-12-07T08:11:40;5.20;99.90
62339;DHT22;48368;53.406;6.214;2022-12-07T08:14:06;5.30;99.90
62339;DHT22;48368;53.406;6.214;2022-12-07T08:16:31;5.30;99.90
62339;DHT22;48368;53.406;6.214;2022-12-07T08:18:57;5.40;99.90
62339;DHT22;48368;53.406;6.214;2022-12-07T08:21:22;5.40;99.90
62339;DHT22;48368;53.406;6.214;2022-12-07T08:23:48;5.40;99.90
62339;DHT22;48368;53.406;6.214;2022-12-07T08:26:16;5.40;99.90
62339;DHT22;48368;53.406;6.214;2022-12-07T08:28:42;5.40;99.90
62339;DHT22;48368;53.406;6.214;2022-12-07T08:31:12;5.20;99.90
62339;DHT22;48368;53.406;6.214;2022-12-07T08:33:38;5.30;99.90
62339;DHT22;48368;53.406;6.214;2022-12-07T08:36:07;5.20;99.90
62339;DHT22;48368;53.406;6.214;2022-12-07T08:38:35;5.10;99.90
62339;DHT22;48368;53.406;6.214;2022-12-07T08:41:01;5.00;99.90
62339;DHT22;48368;53.406;6.214;2022-12-07T08:43:27;5.10;99.90
62339;DHT22;48368;53.406;6.214;2022-12-07T08:46:18;5.00;99.90
62339;DHT22;48368;53.406;6.214;2022-12-07T08:48:58;5.00;99.90
62339;DHT22;48368;53.406;6.214;2022-12-07T08:51:27;5.00;99.90
62339;DHT22;48368;53.406;6.214;2022-12-07T08:53:54;5.00;99.90
62339;DHT22;48368;53.406;6.214;2022-12-07T08:56:21;5.00;99.90
62339;DHT22;48368;53.406;6.214;2022-12-07T08:58:48;5.10;99.90
62339;DHT22;48368;53.406;6.214;2022-12-07T09:01:14;5.10;99.90
62339;DHT22;48368;53.406;6.214;2022-12-07T09:03:40;5.10;99.90
62339;DHT22;48368;53.406;6.214;2022-12-07T09:06:06;5.10;99.90
62339;DHT22;48368;53.406;6.214;2022-12-07T09:08:37;5.10;99.90
62339;DHT22;48368;53.406;6.214;2022-12-07T09:11:04;5.20;99.90
62339;DHT22;48368;53.406;6.214;2022-12-07T09:13:29;5.20;99.90
62339;DHT22;48368;53.406;6.214;2022-12-07T09:15:55;5.30;99.90
62339;DHT22;48368;53.406;6.214;2022-12-07T09:18:21;5.30;99.90
62339;DHT22;48368;53.406;6.214;2022-12-07T09:20:46;5.50;99.90
62339;DHT22;48368;53.406;6.214;2022-12-07T09:23:12;5.50;99.90
62339;DHT22;48368;53.406;6.214;2022-12-07T09:25:38;5.50;99.90
62339;DHT22;48368;53.406;6.214;2022-12-07T09:28:03;5.60;99.90
62339;DHT22;48368;53.406;6.214;2022-12-07T09:30:29;5.60;99.90
62339;DHT22;48368;53.406;6.214;2022-12-07T09:32:56;5.60;99.90
62339;DHT22;48368;53.406;6.214;2022-12-07T09:35:22;5.60;99.90
62339;DHT22;48368;53.406;6.214;2022-12-07T09:37:48;5.80;99.90
62339;DHT22;48368;53.406;6.214;2022-12-07T09:40:15;5.80;99.90
62339;DHT22;48368;53.406;6.214;2022-12-07T09:42:44;6.00;99.90
62339;DHT22;48368;53.406;6.214;2022-12-07T09:45:16;6.10;99.90
62339;DHT22;48368;53.406;6.214;2022-12-07T09:47:42;6.20;99.90
62339;DHT22;48368;53.406;6.214;2022-12-07T09:50:14;6.20;99.90
62339;DHT22;48368;53.406;6.214;2022-12-07T09:52:41;6.30;99.90
62339;DHT22;48368;53.406;6.214;2022-12-07T09:55:12;6.40;99.90
62339;DHT22;48368;53.406;6.214;2022-12-07T09:57:38;6.40;99.90
62339;DHT22;48368;53.406;6.214;2022-12-07T10:00:16;6.40;99.90
62339;DHT22;48368;53.406;6.214;2022-12-07T10:02:59;6.40;99.90
62339;DHT22;48368;53.406;6.214;2022-12-07T10:05:35;6.40;99.90
62339;DHT22;48368;53.406;6.214;2022-12-07T10:08:02;6.40;99.90
62339;DHT22;48368;53.406;6.214;2022-12-07T10:10:33;6.40;99.90
62339;DHT22;48368;53.406;6.214;2022-12-07T10:13:11;6.40;99.90
62339;DHT22;48368;53.406;6.214;2022-12-07T10:18:31;6.30;99.90
62339;DHT22;48368;53.406;6.214;2022-12-07T10:23:43;6.20;99.90
62339;DHT22;48368;53.406;6.214;2022-12-07T10:28:56;6.00;99.90
62339;DHT22;48368;53.406;6.214;2022-12-07T10:31:23;5.80;99.90
62339;DHT22;48368;53.406;6.214;2022-12-07T10:33:58;5.80;99.90
62339;DHT22;48368;53.406;6.214;2022-12-07T10:36:37;5.70;99.90
62339;DHT22;48368;53.406;6.214;2022-12-07T10:39:18;5.60;99.90
62339;DHT22;48368;53.406;6.214;2022-12-07T10:44:31;5.70;99.90
62339;DHT22;48368;53.406;6.214;2022-12-07T10:47:03;5.70;99.90
62339;DHT22;48368;53.406;6.214;2022-12-07T10:52:21;5.80;99.90
62339;DHT22;48368;53.406;6.214;2022-12-07T11:00:29;6.00;99.90
62339;DHT22;48368;53.406;6.214;2022-12-07T11:14:20;6.10;99.90
62339;DHT22;48368;53.406;6.214;2022-12-07T11:16:55;6.20;99.90
62339;DHT22;48368;53.406;6.214;2022-12-07T11:27:44;6.40;99.90
62339;DHT22;48368;53.406;6.214;2022-12-07T11:30:18;6.50;99.90
62339;DHT22;48368;53.406;6.214;2022-12-07T11:36:02;6.40;99.90
62339;DHT22;48368;53.406;6.214;2022-12-07T11:38:57;6.40;99.90
62339;DHT22;48368;53.406;6.214;2022-12-07T11:41:28;6.40;99.90
62339;DHT22;48368;53.406;6.214;2022-12-07T11:44:48;6.40;99.90
62339;DHT22;48368;53.406;6.214;2022-12-07T11:47:20;6.40;99.90
62339;DHT22;48368;53.406;6.214;2022-12-07T11:49:54;6.30;99.90
62339;DHT22;48368;53.406;6.214;2022-12-07T11:55:17;6.30;99.90
62339;DHT22;48368;53.406;6.214;2022-12-07T11:57:46;6.30;99.90
62339;DHT22;48368;53.406;6.214;2022-12-07T12:00:17;6.30;99.90
62339;DHT22;48368;53.406;6.214;2022-12-07T12:03:01;6.30;99.90
62339;DHT22;48368;53.406;6.214;2022-12-07T12:05:28;6.30;99.90
62339;DHT22;48368;53.406;6.214;2022-12-07T12:11:54;6.40;99.90
62339;DHT22;48368;53.406;6.214;2022-12-07T12:17:43;6.10;99.90
62339;DHT22;48368;53.406;6.214;2022-12-07T12:20:29;6.00;99.90
62339;DHT22;48368;53.406;6.214;2022-12-07T12:23:00;6.00;99.90
62339;DHT22;48368;53.406;6.214;2022-12-07T12:25:39;5.90;99.90
62339;DHT22;48368;53.406;6.214;2022-12-07T12:28:05;5.90;99.90
62339;DHT22;48368;53.406;6.214;2022-12-07T12:30:40;5.80;99.90
62339;DHT22;48368;53.406;6.214;2022-12-07T12:33:26;5.90;99.90
62339;DHT22;48368;53.406;6.214;2022-12-07T12:50:19;5.80;99.90
62339;DHT22;48368;53.406;6.214;2022-12-07T12:52:49;5.90;99.90
62339;DHT22;48368;53.406;6.214;2022-12-07T12:55:18;5.70;99.90
62339;DHT22;48368;53.406;6.214;2022-12-07T12:57:47;5.70;99.90
62339;DHT22;48368;53.406;6.214;2022-12-07T13:00:22;5.80;99.90
62339;DHT22;48368;53.406;6.214;2022-12-07T13:02:52;5.70;99.90
62339;DHT22;48368;53.406;6.214;2022-12-07T13:05:27;5.50;99.90
62339;DHT22;48368;53.406;6.214;2022-12-07T13:07:57;5.30;99.90
62339;DHT22;48368;53.406;6.214;2022-12-07T13:15:50;5.20;99.90
62339;DHT22;48368;53.406;6.214;2022-12-07T13:23:39;5.30;99.90
62339;DHT22;48368;53.406;6.214;2022-12-07T13:31:36;5.40;99.90
62339;DHT22;48368;53.406;6.214;2022-12-07T13:34:04;5.40;99.90
62339;DHT22;48368;53.406;6.214;2022-12-07T13:36:37;5.40;99.90
62339;DHT22;48368;53.406;6.214;2022-12-07T13:39:19;5.40;99.90
62339;DHT22;48368;53.406;6.214;2022-12-07T13:41:50;5.50;99.90
62339;DHT22;48368;53.406;6.214;2022-12-07T13:44:17;5.50;99.90
62339;DHT22;48368;53.406;6.214;2022-12-07T13:49:46;5.50;99.90
62339;DHT22;48368;53.406;6.214;2022-12-07T13:52:19;5.50;99.90
62339;DHT22;48368;53.406;6.214;2022-12-07T13:54:59;5.50;99.90
62339;DHT22;48368;53.406;6.214;2022-12-07T13:57:27;5.40;99.90
62339;DHT22;48368;53.406;6.214;2022-12-07T13:59:54;5.50;99.90
62339;DHT22;48368;53.406;6.214;2022-12-07T14:02:24;5.50;99.90
62339;DHT22;48368;53.406;6.214;2022-12-07T14:04:51;5.60;99.90
62339;DHT22;48368;53.406;6.214;2022-12-07T14:07:26;5.40;99.90
62339;DHT22;48368;53.406;6.214;2022-12-07T14:09:59;5.30;99.90
62339;DHT22;48368;53.406;6.214;2022-12-07T14:12:25;5.20;99.90
62339;DHT22;48368;53.406;6.214;2022-12-07T14:14:52;5.10;99.90
62339;DHT22;48368;53.406;6.214;2022-12-07T14:17:20;5.10;99.90
62339;DHT22;48368;53.406;6.214;2022-12-07T14:19:56;5.10;99.90
62339;DHT22;48368;53.406;6.214;2022-12-07T14:22:27;5.10;99.90
62339;DHT22;48368;53.406;6.214;2022-12-07T14:27:39;4.90;99.90
62339;DHT22;48368;53.406;6.214;2022-12-07T14:30:16;4.80;99.90
62339;DHT22;48368;53.406;6.214;2022-12-07T14:32:43;4.90;99.90
62339;DHT22;48368;53.406;6.214;2022-12-07T14:35:15;4.80;99.90
62339;DHT22;48368;53.406;6.214;2022-12-07T14:37:42;4.90;99.90
62339;DHT22;48368;53.406;6.214;2022-12-07T14:40:20;4.80;99.90
62339;DHT22;48368;53.406;6.214;2022-12-07T14:42:48;4.70;99.90
62339;DHT22;48368;53.406;6.214;2022-12-07T14:45:19;4.70;99.90
62339;DHT22;48368;53.406;6.214;2022-12-07T14:47:46;4.70;99.90
62339;DHT22;48368;53.406;6.214;2022-12-07T14:50:16;4.60;99.90
62339;DHT22;48368;53.406;6.214;2022-12-07T14:52:55;4.50;99.90
62339;DHT22;48368;53.406;6.214;2022-12-07T14:55:25;4.50;99.90
62339;DHT22;48368;53.406;6.214;2022-12-07T14:57:51;4.50;99.90
62339;DHT22;48368;53.406;6.214;2022-12-07T15:00:18;4.40;99.90
62339;DHT22;48368;53.406;6.214;2022-12-07T15:02:45;4.40;99.90
62339;DHT22;48368;53.406;6.214;2022-12-07T15:05:11;4.40;99.90
62339;DHT22;48368;53.406;6.214;2022-12-07T15:07:37;4.60;99.90
62339;DHT22;48368;53.406;6.214;2022-12-07T15:10:03;4.60;99.90
62339;DHT22;48368;53.406;6.214;2022-12-07T15:12:29;4.60;99.90
62339;DHT22;48368;53.406;6.214;2022-12-07T15:14:55;4.70;99.90
62339;DHT22;48368;53.406;6.214;2022-12-07T15:17:20;4.80;99.90
62339;DHT22;48368;53.406;6.214;2022-12-07T15:19:46;4.80;99.90
62339;DHT22;48368;53.406;6.214;2022-12-07T15:22:12;4.80;99.90
62339;DHT22;48368;53.406;6.214;2022-12-07T15:24:37;4.80;99.90
62339;DHT22;48368;53.406;6.214;2022-12-07T15:27:03;4.90;99.90
62339;DHT22;48368;53.406;6.214;2022-12-07T15:29:29;4.80;99.90
62339;DHT22;48368;53.406;6.214;2022-12-07T15:31:55;4.90;99.90
62339;DHT22;48368;53.406;6.214;2022-12-07T15:34:21;4.90;99.90
62339;DHT22;48368;53.406;6.214;2022-12-07T15:36:46;4.80;99.90
62339;DHT22;48368;53.406;6.214;2022-12-07T15:39:12;4.90;99.90
62339;DHT22;48368;53.406;6.214;2022-12-07T15:41:38;4.90;99.90
62339;DHT22;48368;53.406;6.214;2022-12-07T15:44:04;4.90;99.90
62339;DHT22;48368;53.406;6.214;2022-12-07T15:46:48;4.90;99.90
62339;DHT22;48368;53.406;6.214;2022-12-07T15:49:16;4.80;99.90
62339;DHT22;48368;53.406;6.214;2022-12-07T15:51:43;4.60;99.90
62339;DHT22;48368;53.406;6.214;2022-12-07T15:54:20;4.50;99.90
62339;DHT22;48368;53.406;6.214;2022-12-07T15:56:46;4.40;99.90
62339;DHT22;48368;53.406;6.214;2022-12-07T15:59:11;4.30;99.90
62339;DHT22;48368;53.406;6.214;2022-12-07T16:01:37;4.20;99.90
62339;DHT22;48368;53.406;6.214;2022-12-07T16:04:03;4.20;99.90
62339;DHT22;48368;53.406;6.214;2022-12-07T16:06:28;4.20;99.90
62339;DHT22;48368;53.406;6.214;2022-12-07T16:08:54;4.10;99.90
62339;DHT22;48368;53.406;6.214;2022-12-07T16:11:20;4.10;99.90
62339;DHT22;48368;53.406;6.214;2022-12-07T16:13:46;4.10;99.90
62339;DHT22;48368;53.406;6.214;2022-12-07T16:16:13;4.00;99.90
62339;DHT22;48368;53.406;6.214;2022-12-07T16:18:41;4.00;99.90
62339;DHT22;48368;53.406;6.214;2022-12-07T16:21:07;3.90;99.90
62339;DHT22;48368;53.406;6.214;2022-12-07T16:23:33;3.90;99.90
62339;DHT22;48368;53.406;6.214;2022-12-07T16:26:13;3.90;99.90
62339;DHT22;48368;53.406;6.214;2022-12-07T16:28:39;3.80;99.90
62339;DHT22;48368;53.406;6.214;2022-12-07T16:31:07;3.80;99.90
62339;DHT22;48368;53.406;6.214;2022-12-07T16:33:38;3.80;99.90
62339;DHT22;48368;53.406;6.214;2022-12-07T16:36:04;3.70;99.90
62339;DHT22;48368;53.406;6.214;2022-12-07T16:38:31;3.80;99.90
62339;DHT22;48368;53.406;6.214;2022-12-07T16:40:57;3.90;99.90
62339;DHT22;48368;53.406;6.214;2022-12-07T16:43:23;3.90;99.90
62339;DHT22;48368;53.406;6.214;2022-12-07T16:45:49;3.80;99.90
62339;DHT22;48368;53.406;6.214;2022-12-07T16:48:15;3.80;99.90
62339;DHT22;48368;53.406;6.214;2022-12-07T16:50:42;3.90;99.90
62339;DHT22;48368;53.406;6.214;2022-12-07T16:53:09;3.80;99.90
62339;DHT22;48368;53.406;6.214;2022-12-07T16:55:39;4.00;99.90
62339;DHT22;48368;53.406;6.214;2022-12-07T16:58:06;4.10;99.90
62339;DHT22;48368;53.406;6.214;2022-12-07T17:00:32;4.20;99.90
62339;DHT22;48368;53.406;6.214;2022-12-07T17:02:57;4.20;99.90
62339;DHT22;48368;53.406;6.214;2022-12-07T17:05:23;4.20;99.90
62339;DHT22;48368;53.406;6.214;2022-12-07T17:07:50;4.20;99.90
62339;DHT22;48368;53.406;6.214;2022-12-07T17:10:16;4.10;99.90
62339;DHT22;48368;53.406;6.214;2022-12-07T17:12:41;4.20;99.90
62339;DHT22;48368;53.406;6.214;2022-12-07T17:15:08;4.20;99.90
62339;DHT22;48368;53.406;6.214;2022-12-07T17:17:44;4.10;99.90
62339;DHT22;48368;53.406;6.214;2022-12-07T17:20:11;4.10;99.90
62339;DHT22;48368;53.406;6.214;2022-12-07T17:22:37;4.00;99.90
62339;DHT22;48368;53.406;6.214;2022-12-07T17:25:04;4.00;99.90
62339;DHT22;48368;53.406;6.214;2022-12-07T17:27:30;4.00;99.90
62339;DHT22;48368;53.406;6.214;2022-12-07T17:29:57;4.00;99.90
62339;DHT22;48368;53.406;6.214;2022-12-07T17:32:22;4.00;99.90
62339;DHT22;48368;53.406;6.214;2022-12-07T17:34:48;4.00;99.90
62339;DHT22;48368;53.406;6.214;2022-12-07T17:37:14;3.90;99.90
62339;DHT22;48368;53.406;6.214;2022-12-07T17:39:39;3.90;99.90
62339;DHT22;48368;53.406;6.214;2022-12-07T17:42:05;3.90;99.90
62339;DHT22;48368;53.406;6.214;2022-12-07T17:44:49;3.90;99.90